createdAt,value
2019-03-25T00:00:50.048Z,28.7
2019-03-25T00:02:50.325Z,29.7
2019-03-25T00:04:49.888Z,29.6
2019-03-25T00:06:50.210Z,28.7
2019-03-25T00:09:05.090Z,29.5
2019-03-25T00:10:49.522Z,29.5
2019-03-25T00:12:49.692Z,25.5
2019-03-25T00:14:49.885Z,25.4
2019-03-25T00:16:50.088Z,24.5
2019-03-25T00:18:50.195Z,24.5
2019-03-25T00:20:50.234Z,24.2
2019-03-25T00:22:50.250Z,22.7
2019-03-25T00:24:50.428Z,21.7
2019-03-25T00:26:49.718Z,20.6
2019-03-25T00:28:49.903Z,20.0
2019-03-25T00:30:50.026Z,20.0
2019-03-25T00:32:50.222Z,20.6
2019-03-25T00:34:50.523Z,19.8
2019-03-25T00:36:49.845Z,20.3
2019-03-25T00:38:49.909Z,18.6
2019-03-25T00:40:50.155Z,18.6
2019-03-25T00:42:50.233Z,19.7
2019-03-25T00:44:50.284Z,19.7
2019-03-25T00:46:49.669Z,19.5
2019-03-25T00:48:49.691Z,19.8
2019-03-25T00:50:49.754Z,19.8
2019-03-25T00:52:49.841Z,20.6
2019-03-25T00:54:50.538Z,20.5
2019-03-25T00:56:49.782Z,20.4
2019-03-25T00:58:49.811Z,20.6
2019-03-25T01:00:50.007Z,20.6
2019-03-25T01:02:50.165Z,21.1
2019-03-25T01:04:49.641Z,21.1
2019-03-25T01:06:49.900Z,22.8
2019-03-25T01:08:49.985Z,22.8
2019-03-25T01:10:50.075Z,21.1
2019-03-25T01:12:50.269Z,21.0
2019-03-25T01:14:50.406Z,21.0
2019-03-25T01:16:49.652Z,21.9
2019-03-25T01:18:49.826Z,21.9
2019-03-25T01:20:50.002Z,22.5
2019-03-25T01:22:50.096Z,21.8
2019-03-25T01:25:01.971Z,22.7
2019-03-25T01:26:50.390Z,22.7
2019-03-25T01:28:50.451Z,22.3
2019-03-25T01:30:49.557Z,22.3
2019-03-25T01:32:49.593Z,22.1
2019-03-25T01:34:50.170Z,22.1
2019-03-25T01:36:50.395Z,22.5
2019-03-25T01:38:50.388Z,22.5
2019-03-25T01:40:50.467Z,22.9
2019-03-25T01:42:50.480Z,22.7
2019-03-25T01:44:49.569Z,22.7
2019-03-25T01:46:49.802Z,23.8
2019-03-25T01:48:49.872Z,22.8
2019-03-25T01:50:49.948Z,22.5
2019-03-25T01:52:50.089Z,23.2
2019-03-25T01:54:50.194Z,22.4
2019-03-25T01:56:50.308Z,22.4
2019-03-25T01:58:50.323Z,23.8
2019-03-25T02:00:50.382Z,23.8
2019-03-25T02:02:50.411Z,24.7
2019-03-25T02:04:49.803Z,23.6
2019-03-25T02:06:50.171Z,23.6
2019-03-25T02:08:50.289Z,24.0
2019-03-25T02:10:50.338Z,23.8
2019-03-25T02:12:50.507Z,24.9
2019-03-25T02:14:49.767Z,23.9
2019-03-25T02:16:50.229Z,23.9
2019-03-25T02:18:50.406Z,26.0
2019-03-25T02:20:49.715Z,25.0
2019-03-25T02:22:50.386Z,23.9
2019-03-25T02:24:50.295Z,24.4
2019-03-25T02:26:49.691Z,24.4
2019-03-25T02:28:49.944Z,23.4
2019-03-25T02:30:50.075Z,23.4
2019-03-25T02:32:50.375Z,24.5
2019-03-25T02:34:49.939Z,24.3
2019-03-25T02:36:50.357Z,24.7
2019-03-25T02:38:49.662Z,23.4
2019-03-25T02:40:49.738Z,23.3
2019-03-25T02:42:49.786Z,24.0
2019-03-25T02:44:49.954Z,22.6
2019-03-25T02:46:50.300Z,22.6
2019-03-25T02:48:50.410Z,23.0
2019-03-25T02:50:49.528Z,22.6
2019-03-25T02:52:49.639Z,22.8
2019-03-25T02:54:49.777Z,22.8
2019-03-25T02:56:50.164Z,22.9
2019-03-25T02:58:50.305Z,22.7
2019-03-25T03:00:50.465Z,22.2
2019-03-25T03:02:49.538Z,22.4
2019-03-25T03:04:50.073Z,22.4
2019-03-25T03:06:50.375Z,21.5
2019-03-25T03:08:50.160Z,22.6
2019-03-25T03:10:50.310Z,21.7
2019-03-25T03:12:50.446Z,21.7
2019-03-25T03:14:49.567Z,21.5
2019-03-25T03:16:49.762Z,20.7
2019-03-25T03:18:50.005Z,21.4
2019-03-25T03:20:50.253Z,20.9
2019-03-25T03:22:50.473Z,20.9
2019-03-25T03:24:49.587Z,20.3
2019-03-25T03:26:49.958Z,20.0
2019-03-25T03:28:50.219Z,19.4
2019-03-25T03:30:50.468Z,19.7
2019-03-25T03:32:49.598Z,19.7
2019-03-25T03:34:50.408Z,20.3
2019-03-25T03:36:49.777Z,20.5
2019-03-25T03:38:49.914Z,20.7
2019-03-25T03:40:50.017Z,20.8
2019-03-25T03:42:50.123Z,20.8
2019-03-25T03:44:50.183Z,22.5
2019-03-25T03:46:50.380Z,21.8
2019-03-25T03:48:50.507Z,21.6
2019-03-25T03:50:49.578Z,22.4
2019-03-25T03:52:49.803Z,22.4
2019-03-25T03:54:49.976Z,21.9
2019-03-25T03:56:50.144Z,22.8
2019-03-25T03:58:50.230Z,22.8
2019-03-25T04:00:50.543Z,22.2
2019-03-25T04:02:49.729Z,22.2
2019-03-25T04:04:50.314Z,23.4
2019-03-25T04:06:49.760Z,23.0
2019-03-25T04:08:49.844Z,23.5
2019-03-25T04:10:49.971Z,22.4
2019-03-25T04:12:50.032Z,22.4
2019-03-25T04:14:50.193Z,22.9
2019-03-25T04:16:50.518Z,22.9
2019-03-25T04:18:49.622Z,21.8
2019-03-25T04:20:49.803Z,21.8
2019-03-25T04:22:49.897Z,21.6
2019-03-25T04:24:50.104Z,20.4
2019-03-25T04:26:50.345Z,20.4
2019-03-25T04:28:50.473Z,20.4
2019-03-25T04:30:49.575Z,21.4
2019-03-25T04:32:49.769Z,19.9
2019-03-25T04:34:50.278Z,18.3
2019-03-25T04:36:49.689Z,18.7
2019-03-25T04:38:49.745Z,18.7
2019-03-25T04:40:49.924Z,16.8
2019-03-25T04:42:50.036Z,22.0
2019-03-25T04:44:50.092Z,22.0
2019-03-25T04:46:50.370Z,15.2
2019-03-25T04:48:50.518Z,15.2
2019-03-25T04:50:49.549Z,13.6
2019-03-25T04:52:49.593Z,12.6
2019-03-25T04:54:49.798Z,13.0
2019-03-25T04:56:50.138Z,13.0
2019-03-25T04:58:50.272Z,11.0
2019-03-25T05:00:50.424Z,12.0
2019-03-25T05:02:49.541Z,12.1
2019-03-25T05:04:50.104Z,11.5
2019-03-25T05:06:50.308Z,11.1
2019-03-25T05:08:50.382Z,11.1
2019-03-25T05:10:50.463Z,11.8
2019-03-25T05:12:49.671Z,10.9
2019-03-25T05:14:49.818Z,11.3
2019-03-25T05:16:50.076Z,10.9
2019-03-25T05:18:50.247Z,10.9
2019-03-25T05:20:50.399Z,10.8
2019-03-25T05:22:49.552Z,10.0
2019-03-25T05:24:49.710Z,10.0
2019-03-25T05:26:51.590Z,9.2
2019-03-25T05:28:49.761Z,9.2
2019-03-25T05:30:49.762Z,9.4
2019-03-25T05:32:49.968Z,8.6
2019-03-25T05:34:50.336Z,8.6
2019-03-25T05:36:49.565Z,8.3
2019-03-25T05:38:49.591Z,8.3
2019-03-25T05:40:49.683Z,7.7
2019-03-25T05:42:49.661Z,7.5
2019-03-25T05:44:49.766Z,8.5
2019-03-25T05:46:50.006Z,8.5
2019-03-25T05:48:50.099Z,7.6
2019-03-25T05:50:50.189Z,7.3
2019-03-25T05:52:50.230Z,7.2
2019-03-25T05:54:50.320Z,8.3
2019-03-25T05:56:49.569Z,8.3
2019-03-25T05:58:49.655Z,8.1
2019-03-25T06:00:49.674Z,8.1
2019-03-25T06:02:49.741Z,8.2
2019-03-25T06:04:50.292Z,8.0
2019-03-25T06:06:52.334Z,8.0
2019-03-25T06:08:50.534Z,8.0
2019-03-25T06:10:49.615Z,7.5
2019-03-25T06:12:49.818Z,6.9
2019-03-25T06:14:49.970Z,6.8
2019-03-25T06:16:50.137Z,6.8
2019-03-25T06:18:50.293Z,7.1
2019-03-25T06:20:50.488Z,6.1
2019-03-25T06:22:49.527Z,7.1
2019-03-25T06:24:49.686Z,7.0
2019-03-25T06:26:49.945Z,7.0
2019-03-25T06:28:50.042Z,6.5
2019-03-25T06:30:50.085Z,7.0
2019-03-25T06:32:50.137Z,7.0
2019-03-25T06:34:49.609Z,6.5
2019-03-25T06:36:50.469Z,6.5
2019-03-25T06:38:49.601Z,6.6
2019-03-25T06:40:49.621Z,6.1
2019-03-25T06:42:49.678Z,6.8
2019-03-25T06:44:49.678Z,6.8
2019-03-25T06:46:49.865Z,6.3
2019-03-25T06:48:49.951Z,6.1
2019-03-25T06:50:50.080Z,6.6
2019-03-25T06:52:50.191Z,6.6
2019-03-25T06:54:50.247Z,6.8
2019-03-25T06:56:50.490Z,6.0
2019-03-25T06:58:49.580Z,6.5
2019-03-25T07:00:49.673Z,6.5
2019-03-25T07:02:49.781Z,6.5
2019-03-25T07:04:50.222Z,6.5
2019-03-25T07:06:50.369Z,6.9
2019-03-25T07:08:50.508Z,6.2
2019-03-25T07:10:49.687Z,6.5
2019-03-25T07:12:49.741Z,6.5
2019-03-25T07:14:49.807Z,6.9
2019-03-25T07:16:49.948Z,6.3
2019-03-25T07:18:49.939Z,6.8
2019-03-25T07:20:50.053Z,6.4
2019-03-25T07:22:50.127Z,6.7
2019-03-25T07:24:50.196Z,6.7
2019-03-25T07:26:50.407Z,6.7
2019-03-25T07:28:49.617Z,7.4
2019-03-25T07:30:49.625Z,7.4
2019-03-25T07:32:49.718Z,7.4
2019-03-25T07:34:49.998Z,7.2
2019-03-25T07:36:50.095Z,7.2
2019-03-25T07:38:50.144Z,6.9
2019-03-25T07:40:50.268Z,6.9
2019-03-25T07:42:50.424Z,7.3
2019-03-25T07:44:49.527Z,7.9
2019-03-25T07:46:49.868Z,7.8
2019-03-25T07:48:49.897Z,7.8
2019-03-25T07:50:50.240Z,7.8
2019-03-25T07:52:49.949Z,7.8
2019-03-25T07:54:50.048Z,9.0
2019-03-25T07:56:50.218Z,8.2
2019-03-25T07:58:50.328Z,7.8
2019-03-25T08:00:49.586Z,8.9
2019-03-25T08:02:49.778Z,8.9
2019-03-25T08:04:50.165Z,8.1
2019-03-25T08:06:50.460Z,7.7
2019-03-25T08:08:49.632Z,8.9
2019-03-25T08:10:49.773Z,8.4
2019-03-25T08:12:49.918Z,8.4
2019-03-25T08:14:50.097Z,8.3
2019-03-25T08:16:49.818Z,8.8
2019-03-25T08:18:50.046Z,7.9
2019-03-25T08:20:50.241Z,7.9
2019-03-25T08:22:50.318Z,8.2
2019-03-25T08:24:50.415Z,8.1
2019-03-25T08:26:49.541Z,8.5
2019-03-25T08:28:49.578Z,8.5
2019-03-25T08:30:49.728Z,8.4
2019-03-25T08:32:49.746Z,9.3
2019-03-25T08:34:50.461Z,8.8
2019-03-25T08:36:49.732Z,9.1
2019-03-25T08:38:49.632Z,9.1
2019-03-25T08:40:49.728Z,9.7
2019-03-25T08:42:49.691Z,9.4
2019-03-25T08:44:49.782Z,9.5
2019-03-25T08:46:49.898Z,8.7
2019-03-25T08:48:49.939Z,8.7
2019-03-25T08:50:50.076Z,8.2
2019-03-25T08:52:50.203Z,9.5
2019-03-25T08:54:50.255Z,9.2
2019-03-25T08:56:50.523Z,9.1
2019-03-25T08:58:49.764Z,8.7
2019-03-25T09:00:50.101Z,8.7
2019-03-25T09:02:50.400Z,9.4
2019-03-25T09:04:49.923Z,9.1
2019-03-25T09:06:50.072Z,9.1
2019-03-25T09:08:50.089Z,9.1
2019-03-25T09:10:50.103Z,11.6
2019-03-25T09:12:50.159Z,9.0
2019-03-25T09:14:50.267Z,10.5
2019-03-25T09:16:50.394Z,8.5
2019-03-25T09:18:49.535Z,8.5
2019-03-25T09:20:49.583Z,7.7
2019-03-25T09:22:49.624Z,8.7
2019-03-25T09:24:49.647Z,8.2
2019-03-25T09:26:49.849Z,9.0
2019-03-25T09:28:49.870Z,9.0
2019-03-25T09:30:49.818Z,9.0
2019-03-25T09:32:50.139Z,8.4
2019-03-25T09:34:50.462Z,8.4
2019-03-25T09:36:49.701Z,8.4
2019-03-25T09:38:49.698Z,8.4
2019-03-25T09:40:49.745Z,8.6
2019-03-25T09:42:49.773Z,8.3
2019-03-25T09:44:49.903Z,8.3
2019-03-25T09:46:50.098Z,8.3
2019-03-25T09:48:50.195Z,8.8
2019-03-25T09:50:50.226Z,8.8
2019-03-25T09:52:50.379Z,9.3
2019-03-25T09:54:50.407Z,7.6
2019-03-25T09:56:50.516Z,8.9
2019-03-25T09:58:49.617Z,8.9
2019-03-25T10:00:52.361Z,8.2
2019-03-25T10:02:50.373Z,8.2
2019-03-25T10:04:49.904Z,8.0
2019-03-25T10:06:50.168Z,8.0
2019-03-25T10:08:50.511Z,8.2
2019-03-25T10:10:49.661Z,8.8
2019-03-25T10:12:50.000Z,8.6
2019-03-25T10:14:50.186Z,8.4
2019-03-25T10:16:49.553Z,8.4
2019-03-25T10:18:49.684Z,8.5
2019-03-25T10:20:49.976Z,8.5
2019-03-25T10:22:50.186Z,8.8
2019-03-25T10:24:50.489Z,8.3
2019-03-25T10:26:49.820Z,8.3
2019-03-25T10:28:50.070Z,7.9
2019-03-25T10:30:50.391Z,8.9
2019-03-25T10:32:50.416Z,9.0
2019-03-25T10:34:49.795Z,9.0
2019-03-25T10:36:49.985Z,8.7
2019-03-25T10:38:50.036Z,8.6
2019-03-25T10:40:50.054Z,8.1
2019-03-25T10:42:50.192Z,8.2
2019-03-25T10:44:50.237Z,8.2
2019-03-25T10:46:50.496Z,7.2
2019-03-25T10:48:49.611Z,7.5
2019-03-25T10:50:49.689Z,8.0
2019-03-25T10:52:49.797Z,6.9
2019-03-25T10:54:50.142Z,6.9
2019-03-25T10:56:49.819Z,7.7
2019-03-25T10:58:58.538Z,5.1
2019-03-25T11:00:50.284Z,4.8
2019-03-25T11:02:50.373Z,4.4
2019-03-25T11:04:49.792Z,4.4
2019-03-25T11:06:49.928Z,4.4
2019-03-25T11:08:49.984Z,5.6
2019-03-25T11:10:50.068Z,6.4
2019-03-25T11:12:50.177Z,6.4
2019-03-25T11:14:50.181Z,5.9
2019-03-25T11:16:49.574Z,5.6
2019-03-25T11:18:49.637Z,6.5
2019-03-25T11:20:49.673Z,7.6
2019-03-25T11:22:49.694Z,7.6
2019-03-25T11:24:49.731Z,6.6
2019-03-25T11:26:50.036Z,6.7
2019-03-25T11:28:50.212Z,6.7
2019-03-25T11:30:50.394Z,7.5
2019-03-25T11:32:50.487Z,7.5
2019-03-25T11:34:49.987Z,6.1
2019-03-25T11:36:50.417Z,6.0
2019-03-25T11:38:49.588Z,6.0
2019-03-25T11:40:49.837Z,6.1
2019-03-25T11:42:49.991Z,6.1
2019-03-25T11:44:50.204Z,7.0
2019-03-25T11:46:50.516Z,6.2
2019-03-25T11:48:49.754Z,5.5
2019-03-25T11:50:49.975Z,5.5
2019-03-25T11:52:50.078Z,5.5
2019-03-25T11:54:50.257Z,5.4
2019-03-25T11:56:49.554Z,5.1
2019-03-25T11:58:49.731Z,5.1
2019-03-25T12:00:49.903Z,6.2
2019-03-25T12:02:50.072Z,6.2
2019-03-25T12:04:49.665Z,6.0
2019-03-25T12:06:50.082Z,8.0
2019-03-25T12:08:50.169Z,8.0
2019-03-25T12:10:50.225Z,7.8
2019-03-25T12:12:50.320Z,8.7
2019-03-25T12:14:50.479Z,8.4
2019-03-25T12:16:49.837Z,9.9
2019-03-25T12:18:49.937Z,9.9
2019-03-25T12:20:50.065Z,9.6
2019-03-25T12:22:50.128Z,9.6
2019-03-25T12:24:50.159Z,9.4
2019-03-25T12:26:50.357Z,6.5
2019-03-25T12:28:50.401Z,6.5
2019-03-25T12:30:50.399Z,4.6
2019-03-25T12:32:50.474Z,3.8
2019-03-25T12:34:49.981Z,2.9
2019-03-25T12:36:50.312Z,2.9
2019-03-25T12:38:50.514Z,2.7
2019-03-25T12:40:49.925Z,2.7
2019-03-25T12:42:50.199Z,2.7
2019-03-25T12:44:50.481Z,3.1
2019-03-25T12:46:49.756Z,2.8
2019-03-25T12:48:50.198Z,2.8
2019-03-25T12:50:50.373Z,2.8
2019-03-25T12:52:49.565Z,2.9
2019-03-25T12:54:49.762Z,3.0
2019-03-25T12:56:50.104Z,2.6
2019-03-25T12:58:50.319Z,2.2
2019-03-25T13:00:50.500Z,2.2
2019-03-25T13:02:49.715Z,2.3
2019-03-25T13:04:50.389Z,2.4
2019-03-25T13:06:49.845Z,2.9
2019-03-25T13:08:50.171Z,2.5
2019-03-25T13:10:50.359Z,2.5
2019-03-25T13:12:49.595Z,2.6
2019-03-25T13:14:49.812Z,2.4
2019-03-25T13:16:50.211Z,2.8
2019-03-25T13:18:50.483Z,3.2
2019-03-25T13:20:49.646Z,3.2
2019-03-25T13:22:49.817Z,2.7
2019-03-25T13:24:50.098Z,2.2
2019-03-25T13:26:50.386Z,2.5
2019-03-25T13:28:49.591Z,2.3
2019-03-25T13:30:49.613Z,2.3
2019-03-25T13:32:49.775Z,2.6
2019-03-25T13:34:50.443Z,2.6
2019-03-25T13:36:49.878Z,3.9
2019-03-25T13:38:50.137Z,3.9
2019-03-25T13:40:50.402Z,3.9
2019-03-25T13:42:49.633Z,4.2
2019-03-25T13:44:49.853Z,3.9
2019-03-25T13:46:50.174Z,3.6
2019-03-25T13:48:50.382Z,3.6
2019-03-25T13:50:49.608Z,3.0
2019-03-25T13:52:50.000Z,3.2
2019-03-25T13:54:50.221Z,3.3
2019-03-25T13:56:49.788Z,4.1
2019-03-25T13:58:49.859Z,4.1
2019-03-25T14:00:49.984Z,4.0
2019-03-25T14:02:50.027Z,3.9
2019-03-25T14:04:50.326Z,4.3
2019-03-25T14:06:49.543Z,4.3
2019-03-25T14:08:49.535Z,4.6
2019-03-25T14:10:49.606Z,2.0
2019-03-25T14:12:52.095Z,2.0
2019-03-25T14:14:50.168Z,2.7
2019-03-25T14:16:50.239Z,2.7
2019-03-25T14:18:50.325Z,1.8
2019-03-25T14:20:50.384Z,2.0
2019-03-25T14:22:50.408Z,1.5
2019-03-25T14:24:50.417Z,1.5
2019-03-25T14:26:49.567Z,1.6
2019-03-25T14:28:49.574Z,1.5
2019-03-25T14:30:49.732Z,1.5
2019-03-25T14:32:50.038Z,2.0
2019-03-25T14:34:49.793Z,2.0
2019-03-25T14:36:50.048Z,1.7
2019-03-25T14:38:50.306Z,1.7
2019-03-25T14:40:50.472Z,1.4
2019-03-25T14:42:49.684Z,1.4
2019-03-25T14:44:49.960Z,1.4
2019-03-25T14:46:50.230Z,1.5
2019-03-25T14:48:50.428Z,1.3
2019-03-25T14:50:49.660Z,1.4
2019-03-25T14:52:49.829Z,1.2
2019-03-25T14:54:50.055Z,1.2
2019-03-25T14:56:49.524Z,1.3
2019-03-25T14:58:49.734Z,1.4
2019-03-25T15:00:49.887Z,1.3
2019-03-25T15:02:50.094Z,1.8
2019-03-25T15:04:49.629Z,1.8
2019-03-25T15:06:49.926Z,1.6
2019-03-25T15:08:50.129Z,1.8
2019-03-25T15:10:54.038Z,1.9
2019-03-25T15:12:50.295Z,1.9
2019-03-25T15:14:50.502Z,1.9
2019-03-25T15:16:49.858Z,1.9
2019-03-25T15:18:50.035Z,2.1
2019-03-25T15:20:50.223Z,2.5
2019-03-25T15:22:50.260Z,2.8
2019-03-25T15:24:50.328Z,2.8
2019-03-25T15:26:50.455Z,2.8
2019-03-25T15:28:50.500Z,2.6
2019-03-25T15:30:49.615Z,2.9
2019-03-25T15:32:49.603Z,2.9
2019-03-25T15:34:50.312Z,2.4
2019-03-25T15:36:49.576Z,2.1
2019-03-25T15:38:49.572Z,1.2
2019-03-25T15:40:49.671Z,1.7
2019-03-25T15:42:49.684Z,1.7
2019-03-25T15:44:49.810Z,1.8
2019-03-25T15:46:56.143Z,1.5
2019-03-25T15:48:50.295Z,2.1
2019-03-25T15:50:50.349Z,1.9
2019-03-25T15:52:50.432Z,1.9
2019-03-25T15:54:50.448Z,1.9
2019-03-25T15:56:49.685Z,2.1
2019-03-25T15:58:49.842Z,2.2
2019-03-25T16:00:49.929Z,2.1
2019-03-25T16:02:50.057Z,2.1
2019-03-25T16:04:50.379Z,2.4
2019-03-25T16:06:49.621Z,2.4
2019-03-25T16:08:49.718Z,2.5
2019-03-25T16:10:52.001Z,2.0
2019-03-25T16:12:50.300Z,2.0
2019-03-25T16:14:49.569Z,1.8
2019-03-25T16:16:49.977Z,2.1
2019-03-25T16:18:50.140Z,2.3
2019-03-25T16:20:50.143Z,2.3
2019-03-25T16:22:50.222Z,2.1
2019-03-25T16:24:50.268Z,2.1
2019-03-25T16:26:50.432Z,2.1
2019-03-25T16:28:49.556Z,4.3
2019-03-25T16:30:59.241Z,4.3
2019-03-25T16:32:50.455Z,2.3
2019-03-25T16:34:49.904Z,2.0
2019-03-25T16:36:50.017Z,2.2
2019-03-25T16:38:50.041Z,2.0
2019-03-25T16:40:50.080Z,2.0
2019-03-25T16:42:50.172Z,1.6
2019-03-25T16:44:50.200Z,1.8
2019-03-25T16:46:50.374Z,1.9
2019-03-25T16:48:49.511Z,1.7
2019-03-25T16:50:50.551Z,1.7
2019-03-25T16:52:49.573Z,1.9
2019-03-25T16:54:49.635Z,1.9
2019-03-25T16:56:49.796Z,1.8
2019-03-25T16:58:49.873Z,1.6
2019-03-25T17:00:49.958Z,1.6
2019-03-25T17:02:49.982Z,1.8
2019-03-25T17:04:50.347Z,1.8
2019-03-25T17:06:50.526Z,1.7
2019-03-25T17:08:50.479Z,1.7
2019-03-25T17:10:49.626Z,2.1
2019-03-25T17:12:49.709Z,1.9
2019-03-25T17:14:49.778Z,1.9
2019-03-25T17:16:49.981Z,2.0
2019-03-25T17:18:50.125Z,2.0
2019-03-25T17:20:50.122Z,2.0
2019-03-25T17:22:50.638Z,2.0
2019-03-25T17:24:49.872Z,2.0
2019-03-25T17:26:49.996Z,1.8
2019-03-25T17:28:50.013Z,1.8
2019-03-25T17:30:50.129Z,1.7
2019-03-25T17:32:50.197Z,2.0
2019-03-25T17:34:49.750Z,2.1
2019-03-25T17:36:49.912Z,2.8
2019-03-25T17:38:50.028Z,2.8
2019-03-25T17:40:50.145Z,3.0
2019-03-25T17:42:50.187Z,2.8
2019-03-25T17:44:50.243Z,2.8
2019-03-25T17:46:50.504Z,2.7
2019-03-25T17:48:50.540Z,2.7
2019-03-25T17:50:49.647Z,3.7
2019-03-25T17:52:49.786Z,3.9
2019-03-25T17:54:49.845Z,3.4
2019-03-25T17:56:50.195Z,2.7
2019-03-25T17:58:50.167Z,2.7
2019-03-25T18:00:50.255Z,2.7
2019-03-25T18:02:50.256Z,2.8
2019-03-25T18:04:49.630Z,4.8
2019-03-25T18:06:49.879Z,3.6
2019-03-25T18:08:49.996Z,3.6
2019-03-25T18:10:50.029Z,4.2
2019-03-25T18:12:50.203Z,2.8
2019-03-25T18:14:50.262Z,2.8
2019-03-25T18:16:49.574Z,2.8
2019-03-25T18:18:49.560Z,2.6
2019-03-25T18:20:49.651Z,2.3
2019-03-25T18:22:49.641Z,2.1
2019-03-25T18:24:49.761Z,2.1
2019-03-25T18:26:50.090Z,2.1
2019-03-25T18:28:50.145Z,2.0
2019-03-25T18:30:50.181Z,1.8
2019-03-25T18:32:50.230Z,1.8
2019-03-25T18:34:49.611Z,2.1
2019-03-25T18:36:49.774Z,2.1
2019-03-25T18:38:49.935Z,2.4
2019-03-25T18:40:50.049Z,2.2
2019-03-25T18:42:50.110Z,2.2
2019-03-25T18:44:50.114Z,2.3
2019-03-25T18:46:50.410Z,2.3
2019-03-25T18:48:50.411Z,2.4
2019-03-25T18:50:49.541Z,2.6
2019-03-25T18:52:49.548Z,2.8
2019-03-25T18:54:49.699Z,3.7
2019-03-25T18:56:49.812Z,3.7
2019-03-25T18:58:49.962Z,2.4
2019-03-25T19:00:50.105Z,2.7
2019-03-25T19:02:50.174Z,2.6
2019-03-25T19:04:49.626Z,2.7
2019-03-25T19:06:49.918Z,2.7
2019-03-25T19:08:50.029Z,2.7
2019-03-25T19:10:50.108Z,2.8
2019-03-25T19:12:50.314Z,3.0
2019-03-25T19:14:50.480Z,3.0
2019-03-25T19:16:49.690Z,2.8
2019-03-25T19:18:49.700Z,2.9
2019-03-25T19:20:49.721Z,3.5
2019-03-25T19:22:49.813Z,3.5
2019-03-25T19:24:49.876Z,3.5
2019-03-25T19:26:50.225Z,3.8
2019-03-25T19:28:50.368Z,3.6
2019-03-25T19:30:50.514Z,3.6
2019-03-25T19:32:49.601Z,3.6
2019-03-25T19:34:50.116Z,3.7
2019-03-25T19:36:50.410Z,3.7
2019-03-25T19:38:49.720Z,3.8
2019-03-25T19:40:49.754Z,3.9
2019-03-25T19:42:49.856Z,3.9
2019-03-25T19:44:50.117Z,3.5
2019-03-25T19:46:50.484Z,3.3
2019-03-25T19:48:49.667Z,3.3
2019-03-25T19:50:49.878Z,2.8
2019-03-25T19:52:50.057Z,3.1
2019-03-25T19:54:50.376Z,3.1
2019-03-25T19:56:49.607Z,2.9
2019-03-25T19:58:49.950Z,3.2
2019-03-25T20:00:50.152Z,3.0
2019-03-25T20:02:50.293Z,3.0
2019-03-25T20:04:49.763Z,2.7
2019-03-25T20:06:50.103Z,3.0
2019-03-25T20:08:50.343Z,3.2
2019-03-25T20:10:49.562Z,3.0
2019-03-25T20:12:49.561Z,3.0
2019-03-25T20:14:49.742Z,2.9
2019-03-25T20:16:49.964Z,2.9
2019-03-25T20:18:50.193Z,3.0
2019-03-25T20:20:50.398Z,3.0
2019-03-25T20:22:49.627Z,3.0
2019-03-25T20:24:49.691Z,2.9
2019-03-25T20:26:49.892Z,2.9
2019-03-25T20:28:50.169Z,3.2
2019-03-25T20:30:50.385Z,2.6
2019-03-25T20:32:49.623Z,2.6
2019-03-25T20:34:50.197Z,2.7
2019-03-25T20:36:50.432Z,2.9
2019-03-25T20:38:49.941Z,2.9
2019-03-25T20:40:50.025Z,2.6
2019-03-25T20:42:50.303Z,2.3
2019-03-25T20:44:49.559Z,2.3
2019-03-25T20:46:49.929Z,2.3
2019-03-25T20:48:50.032Z,2.3
2019-03-25T20:50:50.217Z,2.3
2019-03-25T20:52:50.366Z,2.1
2019-03-25T20:54:50.589Z,2.1
2019-03-25T20:56:49.961Z,2.3
2019-03-25T20:58:50.116Z,1.9
2019-03-25T21:00:50.383Z,1.9
2019-03-25T21:02:49.531Z,1.8
2019-03-25T21:04:50.110Z,2.0
2019-03-25T21:06:50.347Z,2.0
2019-03-25T21:08:50.518Z,2.0
2019-03-25T21:10:49.742Z,2.0
2019-03-25T21:12:49.941Z,1.8
2019-03-25T21:14:50.295Z,1.5
2019-03-25T21:16:49.538Z,1.5
2019-03-25T21:18:52.494Z,1.3
2019-03-25T21:20:49.751Z,1.3
2019-03-25T21:22:50.076Z,1.7
2019-03-25T21:24:50.263Z,1.5
2019-03-25T21:26:50.537Z,1.3
2019-03-25T21:28:49.743Z,1.3
2019-03-25T21:30:49.827Z,1.4
2019-03-25T21:32:58.897Z,1.5
2019-03-25T21:34:49.661Z,1.6
2019-03-25T21:36:50.043Z,1.5
2019-03-25T21:38:50.321Z,1.5
2019-03-25T21:40:50.554Z,1.7
2019-03-25T21:42:49.867Z,2.0
2019-03-25T21:44:50.072Z,2.0
2019-03-25T21:46:50.670Z,2.3
2019-03-25T21:48:49.755Z,2.3
2019-03-25T21:50:50.183Z,2.4
2019-03-25T21:52:50.534Z,2.2
2019-03-25T21:54:49.819Z,2.3
2019-03-25T21:56:50.220Z,2.2
2019-03-25T21:58:50.439Z,2.2
2019-03-25T22:00:49.749Z,2.5
2019-03-25T22:02:50.011Z,2.7
2019-03-25T22:04:50.451Z,2.7
2019-03-25T22:06:49.722Z,2.7
2019-03-25T22:08:49.813Z,2.9
2019-03-25T22:10:49.837Z,3.3
2019-03-25T22:12:49.891Z,3.3
2019-03-25T22:14:50.022Z,3.2
2019-03-25T22:16:50.183Z,3.2
2019-03-25T22:18:50.212Z,3.5
2019-03-25T22:20:50.321Z,4.1
2019-03-25T22:22:50.339Z,3.7
2019-03-25T22:24:50.414Z,3.7
2019-03-25T22:26:49.659Z,3.7
2019-03-25T22:28:49.726Z,3.9
2019-03-25T22:30:49.773Z,4.1
2019-03-25T22:32:49.883Z,4.6
2019-03-25T22:34:50.512Z,4.2
2019-03-25T22:36:49.778Z,4.2
2019-03-25T22:38:49.778Z,4.3
2019-03-25T22:40:49.939Z,4.0
2019-03-25T22:42:50.022Z,4.0
2019-03-25T22:44:50.057Z,4.6
2019-03-25T22:46:50.218Z,4.6
2019-03-25T22:48:50.219Z,4.8
2019-03-25T22:50:50.236Z,4.5
2019-03-25T22:52:50.304Z,5.0
2019-03-25T22:54:50.246Z,5.0
2019-03-25T22:56:50.409Z,5.0
2019-03-25T22:58:50.447Z,5.4
2019-03-25T23:00:49.575Z,5.2
2019-03-25T23:02:49.639Z,5.2
2019-03-25T23:04:50.231Z,5.2
2019-03-25T23:06:50.446Z,5.6
2019-03-25T23:08:49.577Z,6.1
2019-03-25T23:10:49.577Z,6.0
2019-03-25T23:12:49.728Z,5.2
2019-03-25T23:14:49.750Z,5.2
2019-03-25T23:16:49.957Z,5.6
2019-03-25T23:18:50.006Z,5.6
2019-03-25T23:20:50.105Z,6.0
2019-03-25T23:22:50.248Z,6.3
2019-03-25T23:24:50.330Z,6.3
2019-03-25T23:26:49.520Z,7.0
2019-03-25T23:28:49.584Z,8.3
2019-03-25T23:30:49.625Z,8.5
2019-03-25T23:32:49.740Z,8.5
2019-03-25T23:34:50.323Z,9.0
2019-03-25T23:36:50.494Z,8.3
2019-03-25T23:38:49.605Z,7.7
2019-03-25T23:40:49.584Z,7.0
2019-03-25T23:42:49.730Z,7.3
2019-03-25T23:44:49.736Z,7.3
2019-03-25T23:46:49.972Z,7.6
2019-03-25T23:48:50.059Z,6.8
2019-03-25T23:50:50.093Z,8.0
2019-03-25T23:52:50.226Z,7.3
2019-03-25T23:54:50.302Z,7.3
2019-03-25T23:56:49.597Z,8.2
2019-03-25T23:58:49.682Z,8.1
